Trochu, Canada
Current Conditions -  °F | °C
As of 6:00 AM on Saturday 20 Dec 2014 (Local Time) from CYQF Reporting Station
Clear Clear  
Wind Chill:   Ceiling: Unl
Heat Index: 16°   Visibility: 15mi
Dew Point: 14°   Wind: 6mph
Humidity: 93%   Direction: 210°SSW
Pressure: 29.7"   Gusts: NA
Location:  51.83°N, 113.23°W
Report Text: CYQF 201300Z 21005KT 15SM SKC M09/M10 A2970 RMK SLP109
Loading
Personal Weather Stations






























Interactive Weather Map New forecast layout! Learn more

10-Day Weather Forecast

Advertisements
Track Severe Weather on mobile